createdAt,value
2019-02-22T00:00:41.766Z,99.90
2019-02-22T00:03:10.177Z,99.90
2019-02-22T00:05:38.640Z,99.90
2019-02-22T00:08:07.024Z,99.90
2019-02-22T00:10:35.411Z,99.90
2019-02-22T00:13:03.840Z,99.90
2019-02-22T00:15:32.241Z,99.90
2019-02-22T00:18:00.617Z,99.90
2019-02-22T00:20:29.006Z,99.90
2019-02-22T00:22:57.403Z,99.90
2019-02-22T00:25:25.836Z,99.90
2019-02-22T00:27:54.230Z,99.90
2019-02-22T00:30:22.611Z,99.90
2019-02-22T00:32:51.002Z,99.90
2019-02-22T00:35:19.460Z,99.90
2019-02-22T00:37:49.725Z,99.90
2019-02-22T00:40:18.105Z,99.90
2019-02-22T00:42:46.509Z,99.90
2019-02-22T00:45:14.939Z,99.90
2019-02-22T00:47:43.289Z,99.90
2019-02-22T00:50:11.662Z,99.90
2019-02-22T00:52:40.075Z,99.90
2019-02-22T00:55:08.463Z,99.90
2019-02-22T00:57:36.828Z,99.90
2019-02-22T01:00:07.480Z,99.90
2019-02-22T01:02:35.908Z,99.90
2019-02-22T01:05:04.391Z,99.90
2019-02-22T01:07:32.764Z,99.90
2019-02-22T01:10:01.148Z,99.90
2019-02-22T01:12:29.555Z,99.90
2019-02-22T01:14:57.936Z,99.90
2019-02-22T01:17:26.387Z,99.90
2019-02-22T01:19:54.763Z,99.90
2019-02-22T01:22:23.137Z,99.90
2019-02-22T01:24:51.529Z,99.90
2019-02-22T01:27:19.896Z,99.90
2019-02-22T01:29:48.314Z,99.90
2019-02-22T01:32:16.685Z,99.90
2019-02-22T01:34:45.084Z,99.90
2019-02-22T01:37:13.513Z,99.90
2019-02-22T01:39:41.896Z,99.90
2019-02-22T01:42:10.303Z,99.90
2019-02-22T01:44:38.680Z,99.90
2019-02-22T01:47:07.043Z,99.90
2019-02-22T01:49:35.463Z,99.90
2019-02-22T01:52:03.831Z,99.90
2019-02-22T01:54:32.208Z,99.90
2019-02-22T01:57:00.638Z,99.90
2019-02-22T01:59:29.016Z,99.90
2019-02-22T02:01:57.396Z,99.90
2019-02-22T02:04:25.773Z,99.90
2019-02-22T02:06:54.620Z,99.90
2019-02-22T02:09:23.096Z,99.90
2019-02-22T02:11:51.476Z,99.90
2019-02-22T02:14:19.856Z,99.90
2019-02-22T02:16:48.282Z,99.90
2019-02-22T02:19:16.709Z,99.90
2019-02-22T02:21:45.065Z,99.90
2019-02-22T02:24:13.678Z,99.90
2019-02-22T02:26:42.059Z,99.90
2019-02-22T02:29:10.437Z,99.90
2019-02-22T02:31:38.855Z,99.90
2019-02-22T02:34:07.235Z,99.90
2019-02-22T02:36:35.607Z,99.90
2019-02-22T02:39:04.740Z,99.90
2019-02-22T02:41:33.144Z,99.90
2019-02-22T02:44:01.568Z,99.90
2019-02-22T02:46:30.111Z,99.90
2019-02-22T02:48:58.455Z,99.90
2019-02-22T02:51:26.866Z,99.90
2019-02-22T02:53:55.283Z,99.90
2019-02-22T02:56:23.661Z,99.90
2019-02-22T02:58:52.189Z,99.90
2019-02-22T03:01:20.655Z,99.90
2019-02-22T03:03:49.055Z,99.90
2019-02-22T03:06:21.861Z,99.90
2019-02-22T03:08:50.269Z,99.90
2019-02-22T03:11:21.148Z,99.90
2019-02-22T03:13:48.710Z,99.90
2019-02-22T03:16:17.219Z,99.90
2019-02-22T03:18:45.622Z,99.90
2019-02-22T03:21:14.080Z,99.90
2019-02-22T03:23:42.484Z,99.90
2019-02-22T03:26:10.883Z,99.90
2019-02-22T03:28:39.266Z,99.90
2019-02-22T03:31:07.656Z,99.90
2019-02-22T03:33:36.047Z,99.70
2019-02-22T03:36:04.422Z,99.20
2019-02-22T03:38:32.815Z,99.20
2019-02-22T03:41:01.193Z,99.10
2019-02-22T03:43:29.587Z,98.90
2019-02-22T03:45:57.963Z,99.50
2019-02-22T03:48:26.366Z,98.90
2019-02-22T03:50:54.738Z,99.60
2019-02-22T03:53:24.821Z,99.20
2019-02-22T03:55:53.192Z,98.60
2019-02-22T03:58:21.569Z,98.60
2019-02-22T04:00:50.034Z,98.60
2019-02-22T04:03:18.402Z,98.10
2019-02-22T04:05:46.782Z,98.30
2019-02-22T04:08:15.185Z,98.10
2019-02-22T04:10:43.706Z,97.60
2019-02-22T04:13:12.080Z,97.60
2019-02-22T04:15:40.447Z,97.90
2019-02-22T04:18:08.836Z,97.60
2019-02-22T04:20:37.269Z,96.70
2019-02-22T04:23:05.663Z,97.70
2019-02-22T04:25:34.119Z,96.90
2019-02-22T04:28:02.599Z,97.70
2019-02-22T04:30:30.976Z,97.80
2019-02-22T04:32:59.344Z,97.60
2019-02-22T04:35:27.735Z,97.50
2019-02-22T04:37:56.172Z,97.30
2019-02-22T04:40:24.553Z,98.00
2019-02-22T04:42:52.929Z,97.30
2019-02-22T04:45:21.352Z,96.50
2019-02-22T04:47:49.725Z,96.20
2019-02-22T04:50:18.131Z,96.20
2019-02-22T04:52:46.549Z,97.10
2019-02-22T04:55:14.921Z,96.60
2019-02-22T04:57:43.295Z,96.00
2019-02-22T05:00:11.743Z,96.30
2019-02-22T05:02:40.122Z,96.50
2019-02-22T05:05:08.523Z,96.40
2019-02-22T05:07:36.895Z,96.70
2019-02-22T05:10:05.725Z,96.90
2019-02-22T05:12:34.131Z,96.20
2019-02-22T05:15:12.008Z,96.00
2019-02-22T05:17:35.581Z,96.00
2019-02-22T05:20:02.972Z,96.50
2019-02-22T05:22:31.401Z,96.20
2019-02-22T05:24:59.760Z,96.40
2019-02-22T05:27:28.158Z,96.40
2019-02-22T05:29:56.549Z,96.30
2019-02-22T05:32:25.055Z,96.40
2019-02-22T05:34:53.446Z,96.50
2019-02-22T05:37:21.854Z,96.20
2019-02-22T05:39:50.233Z,96.50
2019-02-22T05:42:22.820Z,97.20
2019-02-22T05:44:48.769Z,96.50
2019-02-22T05:47:17.287Z,96.60
2019-02-22T05:49:45.653Z,95.80
2019-02-22T05:52:14.078Z,95.80
2019-02-22T05:54:42.452Z,95.70
2019-02-22T05:57:10.951Z,95.90
2019-02-22T05:59:39.378Z,95.50
2019-02-22T06:02:07.757Z,94.90
2019-02-22T06:04:36.170Z,95.30
2019-02-22T06:07:04.573Z,95.20
2019-02-22T06:09:32.995Z,95.30
2019-02-22T06:12:01.371Z,95.20
2019-02-22T06:14:29.780Z,95.10
2019-02-22T06:16:58.167Z,94.70
2019-02-22T06:19:26.567Z,94.80
2019-02-22T06:21:54.944Z,94.40
2019-02-22T06:24:23.343Z,94.60
2019-02-22T06:26:51.748Z,94.30
2019-02-22T06:29:20.152Z,94.10
2019-02-22T06:31:48.540Z,94.70
2019-02-22T06:34:16.936Z,94.00
2019-02-22T06:36:45.343Z,94.50
2019-02-22T06:39:13.723Z,94.50
2019-02-22T06:41:42.100Z,94.60
2019-02-22T06:44:11.978Z,94.60
2019-02-22T06:46:40.572Z,94.60
2019-02-22T06:49:08.951Z,94.60
2019-02-22T06:51:37.379Z,94.40
2019-02-22T06:54:05.810Z,95.00
2019-02-22T06:56:34.218Z,94.60
2019-02-22T06:59:02.592Z,94.50
2019-02-22T07:01:30.974Z,94.80
2019-02-22T07:03:59.392Z,94.60
2019-02-22T07:06:27.801Z,93.60
2019-02-22T07:08:56.213Z,93.20
2019-02-22T07:11:28.795Z,93.40
2019-02-22T07:13:57.215Z,93.30
2019-02-22T07:16:25.687Z,92.90
2019-02-22T07:18:54.013Z,92.90
2019-02-22T07:21:22.470Z,93.00
2019-02-22T07:23:50.924Z,93.00
2019-02-22T07:26:19.300Z,93.50
2019-02-22T07:28:47.681Z,92.90
2019-02-22T07:31:16.091Z,92.50
2019-02-22T07:33:44.492Z,92.70
2019-02-22T07:36:12.915Z,92.70
2019-02-22T07:38:41.303Z,92.60
2019-02-22T07:41:09.678Z,92.40
2019-02-22T07:43:38.103Z,92.10
2019-02-22T07:46:06.559Z,93.00
2019-02-22T07:48:34.947Z,92.40
2019-02-22T07:51:03.340Z,92.40
2019-02-22T07:53:31.723Z,92.20
2019-02-22T07:56:00.352Z,91.60
2019-02-22T07:58:28.735Z,90.90
2019-02-22T08:00:57.140Z,90.50
2019-02-22T08:03:25.554Z,90.10
2019-02-22T08:05:53.924Z,90.20
2019-02-22T08:08:22.327Z,87.40
2019-02-22T08:10:50.712Z,86.20
2019-02-22T08:13:20.027Z,86.00
2019-02-22T08:15:48.710Z,86.50
2019-02-22T08:18:17.165Z,85.30
2019-02-22T08:20:45.549Z,87.00
2019-02-22T08:23:13.947Z,86.00
2019-02-22T08:25:42.365Z,86.70
2019-02-22T08:28:10.729Z,83.30
2019-02-22T08:30:39.187Z,85.20
2019-02-22T08:33:07.514Z,83.50
2019-02-22T08:35:35.923Z,85.30
2019-02-22T08:38:04.318Z,84.20
2019-02-22T08:40:32.725Z,84.30
2019-02-22T08:43:01.143Z,83.10
2019-02-22T08:45:29.507Z,83.90
2019-02-22T08:47:57.941Z,82.20
2019-02-22T08:50:26.293Z,81.60
2019-02-22T08:52:54.722Z,81.20
2019-02-22T08:55:23.095Z,80.30
2019-02-22T08:57:51.503Z,80.60
2019-02-22T09:00:19.882Z,79.50
2019-02-22T09:02:48.391Z,80.40
2019-02-22T09:05:16.749Z,81.00
2019-02-22T09:07:45.195Z,82.60
2019-02-22T09:10:13.597Z,82.50
2019-02-22T09:12:41.976Z,77.10
2019-02-22T09:15:12.377Z,80.40
2019-02-22T09:17:40.781Z,78.10
2019-02-22T09:20:11.420Z,77.20
2019-02-22T09:22:39.847Z,79.00
2019-02-22T09:25:08.242Z,79.60
2019-02-22T09:27:36.640Z,75.30
2019-02-22T09:30:07.847Z,76.90
2019-02-22T09:32:36.273Z,75.70
2019-02-22T09:35:07.182Z,71.90
2019-02-22T09:37:35.610Z,74.60
2019-02-22T09:40:06.135Z,74.50
2019-02-22T09:42:34.538Z,76.70
2019-02-22T09:45:02.947Z,76.50
2019-02-22T09:47:31.327Z,75.90
2019-02-22T09:49:59.739Z,75.90
2019-02-22T09:52:28.114Z,77.10
2019-02-22T09:54:56.529Z,78.40
2019-02-22T09:57:24.974Z,76.30
2019-02-22T09:59:53.387Z,77.20
2019-02-22T10:02:21.796Z,75.60
2019-02-22T10:04:55.107Z,76.00
2019-02-22T10:07:20.230Z,77.50
2019-02-22T10:09:48.627Z,75.90
2019-02-22T10:12:17.030Z,78.40
2019-02-22T10:14:45.429Z,78.70
2019-02-22T10:17:14.765Z,74.60
2019-02-22T10:19:43.164Z,76.90
2019-02-22T10:22:11.562Z,75.00
2019-02-22T10:24:39.962Z,74.60
2019-02-22T10:27:08.343Z,73.40
2019-02-22T10:29:36.773Z,71.80
2019-02-22T10:32:05.147Z,74.50
2019-02-22T10:34:33.527Z,71.90
2019-02-22T10:37:02.028Z,67.20
2019-02-22T10:39:30.413Z,68.20
2019-02-22T10:41:58.822Z,69.30
2019-02-22T10:44:27.234Z,69.10
2019-02-22T10:46:55.639Z,69.50
2019-02-22T10:49:24.321Z,66.80
2019-02-22T10:51:52.705Z,70.40
2019-02-22T10:54:21.090Z,66.10
2019-02-22T10:56:49.471Z,66.60
2019-02-22T10:59:17.871Z,66.60
2019-02-22T11:01:46.251Z,66.50
2019-02-22T11:04:16.135Z,68.70
2019-02-22T11:06:44.513Z,65.10
2019-02-22T11:09:13.471Z,64.80
2019-02-22T11:11:41.886Z,65.20
2019-02-22T11:14:10.311Z,65.50
2019-02-22T11:16:38.740Z,64.20
2019-02-22T11:19:07.124Z,65.10
2019-02-22T11:21:35.495Z,62.40
2019-02-22T11:24:03.876Z,62.80
2019-02-22T11:26:32.270Z,61.40
2019-02-22T11:29:00.661Z,60.50
2019-02-22T11:31:29.082Z,61.00
2019-02-22T11:33:57.481Z,61.30
2019-02-22T11:36:25.867Z,62.60
2019-02-22T11:38:54.297Z,63.60
2019-02-22T11:41:22.677Z,61.20
2019-02-22T11:43:51.072Z,57.80
2019-02-22T11:46:19.486Z,58.20
2019-02-22T11:48:48.048Z,57.20
2019-02-22T11:51:16.548Z,57.60
2019-02-22T11:53:44.931Z,56.70
2019-02-22T11:56:13.437Z,57.80
2019-02-22T11:58:41.764Z,60.40
2019-02-22T12:01:10.219Z,56.30
2019-02-22T12:03:38.598Z,56.20
2019-02-22T12:06:06.991Z,55.80
2019-02-22T12:08:35.379Z,56.80
2019-02-22T12:11:03.783Z,58.60
2019-02-22T12:13:32.473Z,59.00
2019-02-22T12:16:00.973Z,58.20
2019-02-22T12:18:29.351Z,55.80
2019-02-22T12:20:57.756Z,58.50
2019-02-22T12:23:26.136Z,57.50
2019-02-22T12:25:54.557Z,56.20
2019-02-22T12:28:22.936Z,55.50
2019-02-22T12:30:51.367Z,49.00
2019-02-22T12:33:19.753Z,52.60
2019-02-22T12:35:48.133Z,53.80
2019-02-22T12:38:16.549Z,56.40
2019-02-22T12:40:44.961Z,52.70
2019-02-22T12:43:13.368Z,52.80
2019-02-22T12:45:41.746Z,53.20
2019-02-22T12:48:10.166Z,53.70
2019-02-22T12:50:38.547Z,55.20
2019-02-22T12:53:06.957Z,58.60
2019-02-22T12:55:35.332Z,57.20
2019-02-22T12:58:03.936Z,55.60
2019-02-22T13:00:32.319Z,53.80
2019-02-22T13:03:02.357Z,52.10
2019-02-22T13:05:31.130Z,53.70
2019-02-22T13:07:59.519Z,54.30
2019-02-22T13:10:27.913Z,54.30
2019-02-22T13:12:56.303Z,55.50
2019-02-22T13:15:24.722Z,53.80
2019-02-22T13:17:53.156Z,53.30
2019-02-22T13:20:21.591Z,55.00
2019-02-22T13:22:49.970Z,54.40
2019-02-22T13:25:18.401Z,54.50
2019-02-22T13:27:46.765Z,53.30
2019-02-22T13:30:15.615Z,53.70
2019-02-22T13:32:44.026Z,53.30
2019-02-22T13:35:12.409Z,53.70
2019-02-22T13:37:41.161Z,53.40
2019-02-22T13:40:15.659Z,49.80
2019-02-22T13:42:43.394Z,51.30
2019-02-22T13:45:12.346Z,50.50
2019-02-22T13:47:40.696Z,49.90
2019-02-22T13:50:15.157Z,49.30
2019-02-22T13:52:45.887Z,50.40
2019-02-22T13:55:14.565Z,51.60
2019-02-22T13:57:42.959Z,50.70
2019-02-22T14:00:18.509Z,49.80
2019-02-22T14:02:46.914Z,46.60
2019-02-22T14:05:15.296Z,49.80
2019-02-22T14:07:54.060Z,50.60
2019-02-22T14:10:22.635Z,50.30
2019-02-22T14:12:51.025Z,49.20
2019-02-22T14:15:19.419Z,51.40
2019-02-22T14:17:48.193Z,49.20
2019-02-22T14:20:16.666Z,49.10
2019-02-22T14:22:45.563Z,47.60
2019-02-22T14:25:13.963Z,47.70
2019-02-22T14:27:42.359Z,47.00
2019-02-22T14:30:12.794Z,47.10
2019-02-22T14:32:41.165Z,46.00
2019-02-22T14:35:09.556Z,47.40
2019-02-22T14:37:37.953Z,48.10
2019-02-22T14:40:11.282Z,50.70
2019-02-22T14:42:39.682Z,48.10
2019-02-22T14:45:09.709Z,47.40
2019-02-22T14:47:38.121Z,49.50
2019-02-22T14:50:12.391Z,48.40
2019-02-22T14:52:40.802Z,49.80
2019-02-22T14:55:09.648Z,50.00
2019-02-22T14:57:38.072Z,49.30
2019-02-22T15:00:15.137Z,50.20
2019-02-22T15:02:43.529Z,51.20
2019-02-22T15:05:14.041Z,52.80
2019-02-22T15:07:42.407Z,52.50
2019-02-22T15:10:12.906Z,52.70
2019-02-22T15:12:41.312Z,53.80
2019-02-22T15:15:12.632Z,53.50
2019-02-22T15:17:42.757Z,52.80
2019-02-22T15:20:11.134Z,51.30
2019-02-22T15:22:39.569Z,52.60
2019-02-22T15:25:10.904Z,52.70
2019-02-22T15:27:39.344Z,53.20
2019-02-22T15:30:12.716Z,53.30
2019-02-22T15:32:41.110Z,53.90
2019-02-22T15:35:14.616Z,52.70
2019-02-22T15:37:43.457Z,52.40
2019-02-22T15:40:12.790Z,54.40
2019-02-22T15:42:41.219Z,53.60
2019-02-22T15:45:12.265Z,52.00
2019-02-22T15:47:40.669Z,53.80
2019-02-22T15:50:11.817Z,52.70
2019-02-22T15:52:40.175Z,53.00
2019-02-22T15:55:09.043Z,53.10
2019-02-22T15:57:37.631Z,53.20
2019-02-22T16:00:15.390Z,53.00
2019-02-22T16:02:43.810Z,54.50
2019-02-22T16:05:17.052Z,54.90
2019-02-22T16:07:45.508Z,55.10
2019-02-22T16:10:13.930Z,55.00
2019-02-22T16:12:42.302Z,53.80
2019-02-22T16:15:12.735Z,53.70
2019-02-22T16:17:41.155Z,55.50
2019-02-22T16:20:09.676Z,55.20
2019-02-22T16:22:44.312Z,54.20
2019-02-22T16:25:19.669Z,55.00
2019-02-22T16:27:42.680Z,54.80
2019-02-22T16:30:17.645Z,55.20
2019-02-22T16:32:45.746Z,55.30
2019-02-22T16:35:14.160Z,56.20
2019-02-22T16:37:42.524Z,56.80
2019-02-22T16:40:11.868Z,57.10
2019-02-22T16:42:40.327Z,56.90
2019-02-22T16:45:13.441Z,56.70
2019-02-22T16:47:41.816Z,58.10
2019-02-22T16:50:13.843Z,58.10
2019-02-22T16:52:44.994Z,57.20
2019-02-22T16:55:16.130Z,56.60
2019-02-22T16:57:44.533Z,58.00
2019-02-22T17:00:15.687Z,56.50
2019-02-22T17:02:44.449Z,57.80
2019-02-22T17:05:15.071Z,57.40
2019-02-22T17:07:43.454Z,58.60
2019-02-22T17:10:11.891Z,58.00
2019-02-22T17:12:40.276Z,59.20
2019-02-22T17:15:13.632Z,57.20
2019-02-22T17:17:41.917Z,58.50
2019-02-22T17:20:11.651Z,58.20
2019-02-22T17:22:40.043Z,57.20
2019-02-22T17:25:11.266Z,57.60
2019-02-22T17:27:39.711Z,57.50
2019-02-22T17:30:13.944Z,58.20
2019-02-22T17:32:42.357Z,58.70
2019-02-22T17:35:10.752Z,59.30
2019-02-22T17:37:39.115Z,58.20
2019-02-22T17:40:16.717Z,59.90
2019-02-22T17:42:45.242Z,59.70
2019-02-22T17:45:13.621Z,60.40
2019-02-22T17:47:42.044Z,60.70
2019-02-22T17:50:10.604Z,61.20
2019-02-22T17:52:38.986Z,60.60
2019-02-22T17:55:09.129Z,60.80
2019-02-22T17:57:37.503Z,60.90
2019-02-22T18:00:15.596Z,61.20
2019-02-22T18:02:44.021Z,61.50
2019-02-22T18:05:12.506Z,63.20
2019-02-22T18:07:40.895Z,62.10
2019-02-22T18:10:10.355Z,62.60
2019-02-22T18:12:38.728Z,62.80
2019-02-22T18:15:12.844Z,62.50
2019-02-22T18:17:43.727Z,63.30
2019-02-22T18:20:12.160Z,63.10
2019-02-22T18:22:40.539Z,63.70
2019-02-22T18:25:09.458Z,63.40
2019-02-22T18:27:37.868Z,63.40
2019-02-22T18:30:15.048Z,63.90
2019-02-22T18:32:43.438Z,64.20
2019-02-22T18:35:11.856Z,64.50
2019-02-22T18:37:40.291Z,62.50
2019-02-22T18:40:14.162Z,64.50
2019-02-22T18:42:42.613Z,64.30
2019-02-22T18:45:11.024Z,65.30
2019-02-22T18:47:39.424Z,65.90
2019-02-22T18:50:09.895Z,65.60
2019-02-22T18:52:38.277Z,66.50
2019-02-22T18:55:08.732Z,67.20
2019-02-22T18:57:37.159Z,66.30
2019-02-22T19:00:15.422Z,65.00
2019-02-22T19:02:43.838Z,65.30
2019-02-22T19:05:12.279Z,64.20
2019-02-22T19:07:40.662Z,64.50
2019-02-22T19:10:12.312Z,65.00
2019-02-22T19:12:40.908Z,64.70
2019-02-22T19:15:14.136Z,65.80
2019-02-22T19:17:42.520Z,66.30
2019-02-22T19:20:21.602Z,65.30
2019-02-22T19:22:49.979Z,64.60
2019-02-22T19:25:18.387Z,63.20
2019-02-22T19:27:46.843Z,63.80
2019-02-22T19:30:19.637Z,64.80
2019-02-22T19:32:48.115Z,64.10
2019-02-22T19:35:16.549Z,63.50
2019-02-22T19:37:45.019Z,63.00
2019-02-22T19:40:18.992Z,64.20
2019-02-22T19:42:47.346Z,63.60
2019-02-22T19:45:15.743Z,63.70
2019-02-22T19:47:44.151Z,64.60
2019-02-22T19:50:15.712Z,62.80
2019-02-22T19:52:43.824Z,63.40
2019-02-22T19:55:14.534Z,62.20
2019-02-22T19:57:42.919Z,64.20
2019-02-22T20:00:15.818Z,63.00
2019-02-22T20:02:44.226Z,63.10
2019-02-22T20:05:13.829Z,63.10
2019-02-22T20:07:42.187Z,63.80
2019-02-22T20:10:18.095Z,63.50
2019-02-22T20:12:45.356Z,64.20
2019-02-22T20:15:15.380Z,64.30
2019-02-22T20:17:53.190Z,64.70
2019-02-22T20:20:20.208Z,63.70
2019-02-22T20:22:49.177Z,64.30
2019-02-22T20:25:17.656Z,64.70
2019-02-22T20:27:46.133Z,64.80
2019-02-22T20:30:21.229Z,63.80
2019-02-22T20:32:49.600Z,64.90
2019-02-22T20:35:21.252Z,63.90
2019-02-22T20:37:52.994Z,64.40
2019-02-22T20:40:19.749Z,63.60
2019-02-22T20:42:48.154Z,63.90
2019-02-22T20:45:16.555Z,64.90
2019-02-22T20:47:44.963Z,62.90
2019-02-22T20:50:14.520Z,64.80
2019-02-22T20:52:42.895Z,63.20
2019-02-22T20:55:11.760Z,63.90
2019-02-22T20:57:40.295Z,62.70
2019-02-22T21:00:26.151Z,63.00
2019-02-22T21:02:54.548Z,61.90
2019-02-22T21:05:22.946Z,63.80
2019-02-22T21:07:51.366Z,62.70
2019-02-22T21:10:23.276Z,63.80
2019-02-22T21:12:54.936Z,63.60
2019-02-22T21:15:23.327Z,62.20
2019-02-22T21:17:51.758Z,63.70
2019-02-22T21:20:21.473Z,65.10
2019-02-22T21:22:49.899Z,64.60
2019-02-22T21:25:18.290Z,63.90
2019-02-22T21:27:46.686Z,64.00
2019-02-22T21:30:16.632Z,65.30
2019-02-22T21:32:45.019Z,66.50
2019-02-22T21:35:13.458Z,64.60
2019-02-22T21:37:42.861Z,65.30
2019-02-22T21:40:12.235Z,66.70
2019-02-22T21:42:40.623Z,66.70
2019-02-22T21:45:11.529Z,67.60
2019-02-22T21:47:39.945Z,66.80
2019-02-22T21:50:10.947Z,66.50
2019-02-22T21:52:39.384Z,66.80
2019-02-22T21:55:10.338Z,67.10
2019-02-22T21:57:40.465Z,68.00
2019-02-22T22:00:19.975Z,66.70
2019-02-22T22:02:48.476Z,70.00
2019-02-22T22:05:16.883Z,66.70
2019-02-22T22:07:45.265Z,67.90
2019-02-22T22:10:13.680Z,68.10
2019-02-22T22:12:44.935Z,69.00
2019-02-22T22:15:15.570Z,69.70
2019-02-22T22:17:43.966Z,69.30
2019-02-22T22:20:12.399Z,69.20
2019-02-22T22:22:40.790Z,70.20
2019-02-22T22:25:12.543Z,69.10
2019-02-22T22:27:41.035Z,68.70
2019-02-22T22:30:15.693Z,69.80
2019-02-22T22:32:47.136Z,70.70
2019-02-22T22:35:16.672Z,70.60
2019-02-22T22:37:45.094Z,70.40
2019-02-22T22:40:13.494Z,71.20
2019-02-22T22:42:41.903Z,71.20
2019-02-22T22:45:15.785Z,71.60
2019-02-22T22:47:44.184Z,72.80
2019-02-22T22:50:14.767Z,72.20
2019-02-22T22:52:43.191Z,71.60
2019-02-22T22:55:11.575Z,71.90
2019-02-22T22:57:39.950Z,73.40
2019-02-22T23:00:28.326Z,72.70
2019-02-22T23:02:56.916Z,73.10
2019-02-22T23:05:25.304Z,72.50
2019-02-22T23:07:53.683Z,72.50
2019-02-22T23:10:22.132Z,72.50
2019-02-22T23:12:50.534Z,72.40
2019-02-22T23:15:18.923Z,72.30
2019-02-22T23:17:47.352Z,73.30
2019-02-22T23:20:15.745Z,73.60
2019-02-22T23:22:44.203Z,72.90
2019-02-22T23:25:12.605Z,73.60
2019-02-22T23:27:41.018Z,73.40
2019-02-22T23:30:09.426Z,74.20
2019-02-22T23:32:37.866Z,74.20
2019-02-22T23:35:06.499Z,73.60
2019-02-22T23:37:34.896Z,72.90
2019-02-22T23:40:03.283Z,73.00
2019-02-22T23:42:31.664Z,73.40
2019-02-22T23:45:00.111Z,74.20
2019-02-22T23:47:28.788Z,73.20
2019-02-22T23:49:57.173Z,74.10
2019-02-22T23:52:25.583Z,74.00
2019-02-22T23:54:53.999Z,74.10
2019-02-22T23:57:22.371Z,74.00
2019-02-22T23:59:50.784Z,74.50
